Time;durP1;ratioP1;P1;durP2;ratioP2;P2;SDS_P1;SDS_P2;PMS_P1;PMS_P2;Temp;Humidity;BMP_temperature;BMP_pressure;BME280_temperature;BME280_humidity;BME280_pressure;Samples;Min_cycle;Max_cycle;Signal;HPM_P1;HPM_P2
2023/02/09 00:02:11;;;;;;;21.15;12.30;;;-0.60;90.10;;;;;;5044515;28;20574;-73
2023/02/09 00:04:56;;;;;;;16.85;12.02;;;-0.70;91.00;;;;;;5049561;28;20571;-73
2023/02/09 00:07:42;;;;;;;24.58;12.93;;;-0.60;90.50;;;;;;5038769;28;20592;-74
2023/02/09 00:10:29;;;;;;;17.48;13.10;;;-0.60;90.90;;;;;;5049154;28;20359;-73
2023/02/09 00:13:23;;;;;;;19.20;12.48;;;-0.70;90.70;;;;;;5042236;28;20619;-74
2023/02/09 00:16:08;;;;;;;16.30;12.40;;;-0.80;90.80;;;;;;5042838;28;20213;-73
2023/02/09 00:18:56;;;;;;;16.23;12.45;;;-1.00;92.40;;;;;;5039009;28;20225;-73
2023/02/09 00:21:41;;;;;;;21.20;13.80;;;-1.10;92.90;;;;;;5040698;28;20316;-73
2023/02/09 00:24:27;;;;;;;15.88;11.60;;;-0.90;92.90;;;;;;5046508;28;20611;-73
2023/02/09 00:27:14;;;;;;;18.08;11.32;;;-0.80;92.10;;;;;;5039823;28;20204;-73
2023/02/09 00:30:00;;;;;;;16.83;10.73;;;-0.90;93.10;;;;;;5043763;28;20632;-74
2023/02/09 00:32:45;;;;;;;17.70;10.52;;;-1.00;92.50;;;;;;5045866;28;20359;-74
2023/02/09 00:35:31;;;;;;;19.45;11.30;;;-1.00;92.70;;;;;;5041293;28;20347;-73
2023/02/09 00:38:17;;;;;;;17.75;11.25;;;-1.10;92.60;;;;;;5046122;28;20710;-73
2023/02/09 00:41:03;;;;;;;16.27;11.93;;;-1.10;93.00;;;;;;5042287;28;20257;-73
2023/02/09 00:43:50;;;;;;;16.95;11.60;;;-1.00;92.30;;;;;;5043575;28;20677;-74
2023/02/09 00:46:36;;;;;;;21.02;13.18;;;-1.10;93.20;;;;;;5042520;28;20205;-73
2023/02/09 00:49:22;;;;;;;14.43;10.93;;;-1.10;92.80;;;;;;5047091;28;20676;-74
2023/02/09 00:52:07;;;;;;;20.25;11.95;;;-1.10;92.30;;;;;;5044491;28;20223;-73
2023/02/09 00:54:53;;;;;;;18.73;12.30;;;-1.00;92.30;;;;;;5044017;28;20205;-73
2023/02/09 00:57:39;;;;;;;18.05;11.98;;;-1.00;92.20;;;;;;5044124;28;20332;-73
2023/02/09 01:00:26;;;;;;;19.10;10.73;;;-1.00;91.90;;;;;;5048334;28;20196;-73
2023/02/09 01:03:12;;;;;;;16.00;11.23;;;-1.00;91.90;;;;;;5040352;28;20265;-74
2023/02/09 01:05:59;;;;;;;17.70;11.90;;;-0.90;91.50;;;;;;5037250;28;20586;-73
2023/02/09 01:08:44;;;;;;;18.25;13.00;;;-0.90;91.80;;;;;;5044066;28;20852;-73
2023/02/09 01:11:30;;;;;;;16.30;11.18;;;-1.00;91.90;;;;;;5039276;28;20203;-74
2023/02/09 01:14:16;;;;;;;22.25;12.00;;;-0.90;91.60;;;;;;5045378;28;20205;-74
2023/02/09 01:17:03;;;;;;;23.17;12.20;;;-1.00;91.50;;;;;;5037086;28;20259;-74
2023/02/09 01:19:52;;;;;;;17.10;12.95;;;-1.00;91.00;;;;;;5044909;28;20324;-74
2023/02/09 01:22:37;;;;;;;15.75;10.88;;;-1.20;91.10;;;;;;5044292;28;20197;-73
2023/02/09 01:25:23;;;;;;;16.55;11.57;;;-1.30;91.80;;;;;;5040079;28;20224;-73
2023/02/09 01:28:09;;;;;;;17.42;11.65;;;-1.30;91.90;;;;;;5047066;28;20220;-73
2023/02/09 01:30:54;;;;;;;16.48;11.93;;;-1.50;92.70;;;;;;5035816;28;20208;-74
2023/02/09 01:33:41;;;;;;;19.60;12.48;;;-1.40;93.10;;;;;;5043199;28;20233;-74
2023/02/09 01:36:27;;;;;;;16.08;11.70;;;-1.40;92.70;;;;;;5041428;28;20205;-73
2023/02/09 01:39:14;;;;;;;18.77;12.68;;;-1.30;92.50;;;;;;5047186;28;20279;-74
2023/02/09 01:41:59;;;;;;;17.23;12.25;;;-1.40;92.80;;;;;;5043897;28;20307;-74
2023/02/09 01:45:24;;;;;;;16.88;11.30;;;-1.50;92.80;;;;;;5042790;28;20200;-73
2023/02/09 01:48:10;;;;;;;16.75;12.52;;;-1.60;93.40;;;;;;5037369;28;20236;-73
2023/02/09 01:50:59;;;;;;;17.23;12.18;;;-1.50;93.50;;;;;;5037055;28;20667;-73
2023/02/09 01:53:45;;;;;;;20.45;13.52;;;-1.50;92.90;;;;;;5043474;28;20441;-73
2023/02/09 01:56:31;;;;;;;18.75;11.27;;;-1.50;92.80;;;;;;5038980;28;20279;-74
2023/02/09 01:59:17;;;;;;;17.80;12.45;;;-1.40;92.80;;;;;;5043334;28;20709;-73
2023/02/09 02:02:04;;;;;;;17.95;12.18;;;-1.30;92.40;;;;;;5041104;28;20327;-73
2023/02/09 02:04:51;;;;;;;22.45;13.65;;;-1.30;92.40;;;;;;5042962;28;20687;-73
2023/02/09 02:07:41;;;;;;;18.02;11.90;;;-1.70;92.20;;;;;;5035173;28;20647;-74
2023/02/09 02:10:28;;;;;;;20.60;13.35;;;-1.70;92.90;;;;;;5037478;28;20205;-74
2023/02/09 02:13:14;;;;;;;20.65;12.73;;;-1.80;93.30;;;;;;5033560;28;20303;-74
2023/02/09 02:16:07;;;;;;;17.02;12.52;;;-1.70;94.60;;;;;;5044275;28;20351;-74
2023/02/09 02:19:27;;;;;;;20.63;13.23;;;-1.80;94.20;;;;;;5038060;28;20228;-74
2023/02/09 02:22:53;;;;;;;20.08;13.07;;;-1.90;94.30;;;;;;5038151;28;20295;-74
2023/02/09 02:26:20;;;;;;;18.17;11.77;;;-1.80;94.70;;;;;;5044244;28;20730;-74
2023/02/09 02:29:42;;;;;;;18.40;13.82;;;-1.70;94.90;;;;;;5044236;28;20367;-73
2023/02/09 02:32:38;;;;;;;16.77;12.73;;;-1.50;93.90;;;;;;5045143;28;20271;-73
2023/02/09 02:35:33;;;;;;;17.83;13.18;;;-1.50;93.30;;;;;;5043171;28;20698;-73
2023/02/09 02:38:27;;;;;;;18.10;12.75;;;-1.50;93.00;;;;;;5041108;28;20774;-73
2023/02/09 02:41:18;;;;;;;18.15;12.65;;;-1.60;93.10;;;;;;5048480;28;20279;-73
2023/02/09 02:44:10;;;;;;;20.38;13.40;;;-1.60;93.10;;;;;;5040691;28;20221;-73
2023/02/09 02:47:00;;;;;;;17.50;12.25;;;-1.80;93.50;;;;;;5041510;28;20197;-73
2023/02/09 02:49:50;;;;;;;18.80;12.65;;;-1.80;93.40;;;;;;5050273;28;20213;-74
2023/02/09 02:52:37;;;;;;;18.20;12.63;;;-1.90;93.40;;;;;;5046255;28;20310;-74
2023/02/09 02:55:27;;;;;;;19.58;13.77;;;-2.00;94.90;;;;;;5038897;28;20702;-73
2023/02/09 02:58:14;;;;;;;17.20;11.70;;;-1.90;94.70;;;;;;5040438;28;20297;-73
2023/02/09 03:01:01;;;;;;;21.70;13.30;;;-1.80;93.90;;;;;;5040989;28;20208;-73
2023/02/09 03:03:48;;;;;;;18.55;13.25;;;-1.90;93.90;;;;;;5042998;28;20328;-73
2023/02/09 03:06:37;;;;;;;15.93;11.68;;;-2.00;94.60;;;;;;5049483;28;20208;-73
2023/02/09 03:09:23;;;;;;;17.83;12.40;;;-2.00;94.40;;;;;;5036635;28;20230;-73
2023/02/09 03:12:16;;;;;;;17.73;13.10;;;-2.00;94.50;;;;;;5039323;28;20765;-73
2023/02/09 03:15:15;;;;;;;19.55;13.13;;;-1.90;94.80;;;;;;5041232;28;20687;-72
2023/02/09 03:18:12;;;;;;;18.38;14.35;;;-1.90;94.50;;;;;;5042393;28;20718;-73
2023/02/09 03:21:03;;;;;;;16.60;12.93;;;-2.00;94.60;;;;;;5039622;28;20568;-74
2023/02/09 03:23:59;;;;;;;20.30;14.95;;;-2.10;94.50;;;;;;5046275;28;20401;-73
2023/02/09 03:26:50;;;;;;;22.48;14.95;;;-2.20;95.10;;;;;;5039349;28;20566;-73
2023/02/09 03:29:37;;;;;;;20.95;12.73;;;-2.30;95.10;;;;;;5038407;28;20646;-73
2023/02/09 03:32:24;;;;;;;18.10;12.07;;;-2.40;96.70;;;;;;5047457;28;20253;-73
2023/02/09 03:35:14;;;;;;;18.55;13.10;;;-2.20;97.20;;;;;;5043810;28;20560;-73
2023/02/09 03:38:01;;;;;;;18.63;13.07;;;-2.20;96.40;;;;;;5047009;28;20232;-73
2023/02/09 03:40:48;;;;;;;17.75;13.15;;;-2.30;97.30;;;;;;5047471;28;20213;-73
2023/02/09 03:46:42;;;;;;;20.88;13.85;;;-2.40;97.70;;;;;;5030232;28;20237;-73
2023/02/09 03:49:30;;;;;;;18.85;11.82;;;-2.30;98.80;;;;;;5041391;28;20590;-73
2023/02/09 03:52:16;;;;;;;17.65;13.45;;;-2.30;98.60;;;;;;5048544;28;20304;-73
2023/02/09 03:55:04;;;;;;;19.13;13.70;;;-2.30;98.60;;;;;;5044042;28;20232;-73
2023/02/09 03:57:51;;;;;;;18.90;13.25;;;-2.20;98.80;;;;;;5044525;28;20225;-73
2023/02/09 04:00:36;;;;;;;15.73;12.50;;;-2.10;98.50;;;;;;5046435;28;20220;-73
2023/02/09 04:03:22;;;;;;;18.27;14.57;;;-2.10;97.80;;;;;;5031694;28;20695;-73
2023/02/09 04:06:08;;;;;;;19.42;14.23;;;-2.10;97.40;;;;;;5035547;28;20679;-73
2023/02/09 04:08:55;;;;;;;17.60;13.23;;;-2.00;97.40;;;;;;5044329;28;20291;-73
2023/02/09 04:11:40;;;;;;;19.08;12.40;;;-2.10;97.00;;;;;;5047473;28;20286;-73
2023/02/09 04:14:27;;;;;;;14.95;11.93;;;-2.10;97.20;;;;;;5047111;28;20252;-73
2023/02/09 04:17:13;;;;;;;20.15;13.40;;;-2.00;96.90;;;;;;5052114;28;20571;-73
2023/02/09 04:19:59;;;;;;;21.60;13.88;;;-2.10;96.70;;;;;;5042342;28;20208;-73
2023/02/09 04:22:45;;;;;;;18.30;12.57;;;-2.30;97.70;;;;;;5041266;28;20212;-73
2023/02/09 04:25:31;;;;;;;18.92;13.65;;;-2.30;97.60;;;;;;5046757;28;20283;-73
2023/02/09 04:28:16;;;;;;;19.27;13.77;;;-2.30;97.20;;;;;;5041850;28;20735;-73
2023/02/09 04:31:03;;;;;;;18.85;14.50;;;-2.30;96.90;;;;;;5037842;28;20209;-73
2023/02/09 04:33:49;;;;;;;22.30;16.02;;;-2.30;97.20;;;;;;5043716;28;20272;-73
2023/02/09 04:36:35;;;;;;;20.35;14.25;;;-2.50;98.00;;;;;;5035014;28;20209;-73
2023/02/09 04:39:20;;;;;;;19.73;14.90;;;-2.50;98.30;;;;;;5046403;28;20252;-72
2023/02/09 04:42:06;;;;;;;21.00;15.00;;;-2.70;98.40;;;;;;5036007;28;20205;-73
2023/02/09 04:44:52;;;;;;;21.92;15.00;;;-2.50;99.20;;;;;;5034013;28;20202;-73
2023/02/09 04:47:39;;;;;;;23.25;15.80;;;-2.40;98.90;;;;;;5040345;28;20369;-73
2023/02/09 04:50:24;;;;;;;21.98;16.05;;;-2.40;98.60;;;;;;5042645;28;20260;-73
2023/02/09 04:53:10;;;;;;;25.08;17.35;;;-2.40;98.20;;;;;;5039969;28;20730;-73
2023/02/09 04:55:56;;;;;;;22.77;14.20;;;-2.30;98.10;;;;;;5037373;28;20221;-73
2023/02/09 05:01:45;;;;;;;20.30;13.48;;;-2.30;97.20;;;;;;5035908;28;20196;-72
2023/02/09 05:04:32;;;;;;;20.73;13.68;;;-2.30;96.90;;;;;;5035540;28;20205;-73
2023/02/09 05:07:17;;;;;;;21.20;14.90;;;-2.40;97.50;;;;;;5042996;28;20224;-73
2023/02/09 05:10:04;;;;;;;20.38;14.40;;;-2.50;98.00;;;;;;5040405;28;20333;-73
2023/02/09 05:12:49;;;;;;;21.52;14.93;;;-2.50;97.90;;;;;;5039193;28;20347;-73
2023/02/09 05:15:35;;;;;;;22.45;16.80;;;-2.50;97.80;;;;;;5047222;28;20204;-73
2023/02/09 05:18:21;;;;;;;21.95;16.17;;;-2.60;98.30;;;;;;5036737;28;20668;-73
2023/02/09 05:21:08;;;;;;;24.55;16.17;;;-2.80;98.20;;;;;;5039442;28;20689;-73
2023/02/09 05:23:53;;;;;;;23.90;15.93;;;-2.80;98.90;;;;;;5044145;28;20197;-73
2023/02/09 05:26:39;;;;;;;22.08;16.67;;;-2.70;98.70;;;;;;5044831;28;20208;-73
2023/02/09 05:29:24;;;;;;;20.40;15.27;;;-2.80;98.80;;;;;;5036335;28;20359;-73
2023/02/09 05:32:10;;;;;;;22.92;15.50;;;-2.80;98.80;;;;;;5039819;28;20279;-73
2023/02/09 05:34:56;;;;;;;25.27;16.92;;;-2.70;98.50;;;;;;5050714;28;20298;-73
2023/02/09 05:37:43;;;;;;;23.63;15.48;;;-2.60;97.90;;;;;;5043745;28;20236;-73
2023/02/09 05:40:28;;;;;;;22.10;14.90;;;-2.60;97.70;;;;;;5053425;28;20209;-74
2023/02/09 05:43:14;;;;;;;21.90;14.45;;;-2.60;98.10;;;;;;5050341;28;20197;-74
2023/02/09 05:46:00;;;;;;;24.02;15.98;;;-2.60;97.20;;;;;;5053243;28;20287;-74
2023/02/09 05:48:46;;;;;;;21.73;15.43;;;-2.70;97.30;;;;;;5046578;28;20244;-74
2023/02/09 05:51:31;;;;;;;21.02;14.82;;;-2.80;98.00;;;;;;5047847;28;20296;-74
2023/02/09 05:54:18;;;;;;;21.67;14.77;;;-3.10;98.50;;;;;;5041630;28;20583;-74
2023/02/09 05:57:05;;;;;;;29.60;17.38;;;-2.90;99.00;;;;;;5039474;28;20208;-75
2023/02/09 05:59:50;;;;;;;21.63;15.13;;;-2.90;98.40;;;;;;5042673;28;20208;-74
2023/02/09 06:02:36;;;;;;;20.77;15.98;;;-2.90;98.70;;;;;;5045144;28;20201;-74
2023/02/09 06:05:22;;;;;;;20.75;14.65;;;-2.70;98.10;;;;;;5048579;28;20259;-74
2023/02/09 06:08:07;;;;;;;19.63;14.10;;;-2.60;97.60;;;;;;5052821;28;20338;-74
2023/02/09 06:10:54;;;;;;;21.48;15.15;;;-2.60;96.90;;;;;;5049043;28;20808;-74
2023/02/09 06:13:40;;;;;;;32.63;16.05;;;-2.40;96.80;;;;;;5051076;28;20241;-74
2023/02/09 06:16:26;;;;;;;25.45;16.35;;;-2.60;96.70;;;;;;5055007;28;20290;-74
2023/02/09 06:19:13;;;;;;;21.50;14.70;;;-2.50;96.40;;;;;;5048231;28;20332;-74
2023/02/09 06:21:59;;;;;;;26.95;14.07;;;-2.60;96.30;;;;;;5040963;28;20201;-74
2023/02/09 06:24:45;;;;;;;23.92;14.90;;;-2.50;96.60;;;;;;5045625;28;20327;-74
2023/02/09 06:27:32;;;;;;;20.80;13.48;;;-2.50;96.20;;;;;;5052109;28;20226;-74
2023/02/09 06:30:17;;;;;;;24.13;15.63;;;-2.50;96.00;;;;;;5039597;28;20351;-74
2023/02/09 06:33:03;;;;;;;21.98;15.02;;;-2.50;95.80;;;;;;5044218;28;20209;-74
2023/02/09 06:35:49;;;;;;;21.70;14.98;;;-2.40;95.70;;;;;;5048091;28;20274;-73
2023/02/09 06:38:36;;;;;;;20.95;14.77;;;-2.60;95.10;;;;;;5048189;28;20598;-74
2023/02/09 06:41:22;;;;;;;19.17;14.38;;;-2.60;95.60;;;;;;5046579;28;20202;-74
2023/02/09 06:44:10;;;;;;;21.80;13.57;;;-2.80;96.10;;;;;;5041530;28;20689;-74
2023/02/09 06:46:56;;;;;;;25.33;14.40;;;-2.90;96.60;;;;;;5049930;28;20252;-74
2023/02/09 06:49:41;;;;;;;25.13;16.17;;;-3.00;96.50;;;;;;5049906;28;20298;-74
2023/02/09 06:52:27;;;;;;;20.70;14.57;;;-2.90;97.10;;;;;;5043556;28;20204;-74
2023/02/09 06:55:13;;;;;;;22.23;15.32;;;-3.10;97.00;;;;;;5055530;28;20213;-74
2023/02/09 06:57:59;;;;;;;20.98;15.52;;;-3.00;97.80;;;;;;5041933;28;20291;-74
2023/02/09 07:00:46;;;;;;;20.20;13.60;;;-2.90;97.50;;;;;;5039317;28;20206;-73
2023/02/09 07:03:31;;;;;;;20.90;14.50;;;-2.80;97.60;;;;;;5041127;28;20209;-74
2023/02/09 07:06:20;;;;;;;24.50;15.20;;;-2.80;96.80;;;;;;5041240;28;20209;-74
2023/02/09 07:09:05;;;;;;;25.73;17.15;;;-2.70;96.90;;;;;;5048210;28;20715;-74
2023/02/09 07:11:51;;;;;;;26.42;18.17;;;-2.70;96.70;;;;;;5048407;28;20209;-73
2023/02/09 07:14:37;;;;;;;23.08;15.02;;;-2.70;96.20;;;;;;5043055;28;20327;-74
2023/02/09 07:17:24;;;;;;;23.65;16.13;;;-2.70;96.70;;;;;;5047299;28;20329;-74
2023/02/09 07:20:12;;;;;;;20.67;14.85;;;-2.70;96.80;;;;;;5045116;28;20248;-74
2023/02/09 07:23:00;;;;;;;28.85;17.30;;;-2.80;96.70;;;;;;5045173;28;20214;-74
2023/02/09 07:25:46;;;;;;;24.33;16.90;;;-2.90;98.00;;;;;;5055617;28;20193;-74
2023/02/09 07:28:32;;;;;;;26.05;17.52;;;-2.80;98.00;;;;;;5054090;28;20225;-74
2023/02/09 07:31:18;;;;;;;29.83;19.02;;;-2.70;97.90;;;;;;5053006;28;20260;-74
2023/02/09 07:34:05;;;;;;;28.10;20.23;;;-2.70;97.60;;;;;;5052074;28;20323;-74
2023/02/09 07:36:50;;;;;;;30.20;19.60;;;-2.60;97.50;;;;;;5043226;28;20201;-74
2023/02/09 07:39:36;;;;;;;27.45;18.60;;;-2.60;97.90;;;;;;5042946;28;20213;-73
2023/02/09 07:42:22;;;;;;;27.67;17.63;;;-2.50;97.90;;;;;;5048955;28;20247;-74
2023/02/09 07:45:08;;;;;;;32.00;18.55;;;-2.50;97.80;;;;;;5040772;28;20201;-74
2023/02/09 07:47:54;;;;;;;28.63;17.83;;;-2.50;97.70;;;;;;5040136;28;20706;-74
2023/02/09 07:50:47;;;;;;;27.23;18.20;;;-2.50;98.00;;;;;;5045853;28;20206;-74
2023/02/09 07:53:33;;;;;;;24.38;17.60;;;-2.50;98.50;;;;;;5040260;28;20289;-73
2023/02/09 07:56:19;;;;;;;24.65;17.70;;;-2.40;98.50;;;;;;5049419;28;20302;-73
2023/02/09 07:59:06;;;;;;;26.63;18.75;;;-2.30;98.50;;;;;;5048797;28;20776;-71
2023/02/09 08:01:51;;;;;;;24.10;16.40;;;-2.10;98.20;;;;;;5038255;28;20576;-73
2023/02/09 08:04:37;;;;;;;27.92;19.05;;;-2.00;97.90;;;;;;5037154;28;20197;-73
2023/02/09 08:07:25;;;;;;;30.58;21.50;;;-1.90;97.90;;;;;;5058258;28;20280;-73
2023/02/09 08:10:11;;;;;;;26.38;17.33;;;-1.80;97.90;;;;;;5046360;28;20197;-73
2023/02/09 08:13:02;;;;;;;28.65;20.35;;;-1.70;97.60;;;;;;5041327;28;20209;-73
2023/02/09 08:15:52;;;;;;;30.20;20.52;;;-1.60;97.30;;;;;;5042691;28;20332;-73
2023/02/09 08:18:40;;;;;;;29.23;21.92;;;-1.60;97.50;;;;;;5052630;28;20617;-73
2023/02/09 08:21:28;;;;;;;26.83;20.08;;;-1.50;97.10;;;;;;5047957;28;20252;-73
2023/02/09 08:24:17;;;;;;;31.52;20.98;;;-1.30;97.20;;;;;;5034550;28;20202;-73
2023/02/09 08:27:03;;;;;;;36.42;23.77;;;-1.20;97.30;;;;;;5034775;28;20206;-73
2023/02/09 08:29:49;;;;;;;33.38;23.02;;;-1.10;97.20;;;;;;5041390;28;20244;-72
2023/02/09 08:32:34;;;;;;;36.75;23.23;;;-1.10;97.10;;;;;;5049096;28;20262;-73
2023/02/09 08:35:20;;;;;;;34.47;22.15;;;-1.10;97.00;;;;;;5033075;28;20286;-73
2023/02/09 08:38:06;;;;;;;36.03;20.70;;;-1.00;97.20;;;;;;5036225;28;20590;-73
2023/02/09 08:40:53;;;;;;;39.45;23.92;;;-0.90;97.00;;;;;;5052400;28;20208;-73
2023/02/09 08:43:39;;;;;;;30.85;23.63;;;-0.90;96.70;;;;;;5051541;28;20669;-73
2023/02/09 08:46:25;;;;;;;31.55;22.10;;;-1.10;96.80;;;;;;5039897;28;20343;-73
2023/02/09 08:49:11;;;;;;;32.40;21.75;;;-1.00;97.30;;;;;;5036885;28;20229;-73
2023/02/09 08:51:57;;;;;;;29.77;20.60;;;-0.80;97.60;;;;;;5039589;28;20325;-74
2023/02/09 08:54:43;;;;;;;31.55;22.77;;;-0.70;97.20;;;;;;5038722;28;20280;-73
2023/02/09 08:57:30;;;;;;;36.47;23.48;;;-0.50;96.60;;;;;;5042606;28;20748;-73
2023/02/09 09:00:17;;;;;;;32.92;23.30;;;-0.40;96.70;;;;;;5043635;28;20204;-73
2023/02/09 09:03:04;;;;;;;29.58;20.48;;;-0.20;96.10;;;;;;5048293;28;20267;-73
2023/02/09 09:05:50;;;;;;;32.97;21.42;;;-0.10;95.40;;;;;;5040791;28;20201;-73
2023/02/09 09:08:37;;;;;;;31.98;21.52;;;-0.20;95.20;;;;;;5040953;28;20296;-73
2023/02/09 09:11:23;;;;;;;37.45;21.83;;;0.00;96.00;;;;;;5045530;28;20567;-73
2023/02/09 09:14:10;;;;;;;32.78;20.77;;;0.20;96.50;;;;;;5043860;28;20264;-74
2023/02/09 09:16:57;;;;;;;32.10;21.33;;;0.40;95.80;;;;;;5046450;28;20579;-74
2023/02/09 09:19:42;;;;;;;35.35;20.80;;;0.50;93.90;;;;;;5042244;28;20240;-73
2023/02/09 09:22:28;;;;;;;32.85;20.15;;;0.70;92.80;;;;;;5050017;28;20275;-74
2023/02/09 09:25:14;;;;;;;34.00;20.90;;;0.90;90.70;;;;;;5050867;28;20203;-73
2023/02/09 09:27:59;;;;;;;30.73;18.77;;;1.00;90.00;;;;;;5048567;28;20220;-74
2023/02/09 09:30:46;;;;;;;31.02;19.23;;;1.20;87.50;;;;;;5041270;28;20232;-73
2023/02/09 09:33:32;;;;;;;31.55;19.35;;;1.30;88.60;;;;;;5035167;28;20225;-73
2023/02/09 09:36:19;;;;;;;27.30;19.02;;;1.30;88.40;;;;;;5038437;28;20217;-73
2023/02/09 09:39:04;;;;;;;32.22;18.65;;;1.40;87.70;;;;;;5041832;28;20275;-73
2023/02/09 09:41:54;;;;;;;29.83;20.35;;;1.60;84.00;;;;;;5050736;28;20251;-73
2023/02/09 09:44:43;;;;;;;30.90;18.00;;;1.70;79.30;;;;;;5041819;28;20674;-74
2023/02/09 09:47:37;;;;;;;28.27;18.00;;;1.90;79.50;;;;;;5045847;28;20244;-74
2023/02/09 09:50:25;;;;;;;26.85;17.13;;;2.10;79.20;;;;;;5037394;28;20268;-74
2023/02/09 09:53:18;;;;;;;33.13;19.35;;;2.30;75.30;;;;;;5040645;28;20612;-74
2023/02/09 09:56:07;;;;;;;29.33;17.63;;;2.50;75.30;;;;;;5050362;28;20225;-74
2023/02/09 09:58:52;;;;;;;25.55;17.33;;;2.60;72.70;;;;;;5037826;28;20233;-73
2023/02/09 10:01:38;;;;;;;29.73;17.17;;;2.80;72.20;;;;;;5059211;28;20856;-73
2023/02/09 10:04:25;;;;;;;29.63;18.00;;;2.90;65.70;;;;;;5036828;28;20306;-74
2023/02/09 10:07:16;;;;;;;24.90;16.40;;;3.10;64.60;;;;;;5043641;28;20604;-74
2023/02/09 10:10:05;;;;;;;30.73;19.33;;;3.30;63.90;;;;;;5034618;28;20197;-74
2023/02/09 10:12:53;;;;;;;30.85;17.45;;;3.40;64.40;;;;;;5051555;28;20197;-74
2023/02/09 10:15:38;;;;;;;36.15;20.05;;;3.60;61.40;;;;;;5039354;28;20311;-74
2023/02/09 10:18:25;;;;;;;34.03;18.35;;;3.80;59.80;;;;;;5043668;28;20229;-74
2023/02/09 10:21:14;;;;;;;29.25;18.33;;;4.00;54.70;;;;;;5039471;28;20283;-74
2023/02/09 10:24:13;;;;;;;28.33;16.90;;;4.00;52.90;;;;;;5032955;28;20200;-74
2023/02/09 10:27:06;;;;;;;26.65;17.25;;;4.10;52.80;;;;;;5044250;28;20251;-74
2023/02/09 10:29:52;;;;;;;38.45;18.70;;;4.20;52.30;;;;;;5043870;28;20201;-74
2023/02/09 10:32:43;;;;;;;33.33;19.90;;;4.30;49.60;;;;;;5041292;28;20262;-74
2023/02/09 10:35:43;;;;;;;26.83;17.80;;;4.10;51.10;;;;;;5045278;28;20214;-74
2023/02/09 10:38:32;;;;;;;29.95;19.63;;;4.10;52.90;;;;;;5042802;28;20233;-74
2023/02/09 10:41:17;;;;;;;33.70;18.42;;;4.10;49.50;;;;;;5052757;28;20670;-74
2023/02/09 10:44:08;;;;;;;30.70;20.10;;;4.30;52.10;;;;;;5044756;28;20251;-74
2023/02/09 10:47:10;;;;;;;32.70;19.85;;;4.50;51.50;;;;;;5052023;28;20194;-74
2023/02/09 10:50:00;;;;;;;30.85;19.88;;;4.60;49.20;;;;;;5053103;28;20201;-74
2023/02/09 10:52:59;;;;;;;34.25;21.15;;;4.70;49.80;;;;;;5049636;28;20295;-74
2023/02/09 10:55:46;;;;;;;38.25;19.23;;;5.10;46.00;;;;;;5035848;28;20606;-74
2023/02/09 10:58:34;;;;;;;32.70;19.33;;;5.40;45.10;;;;;;5049505;28;20348;-74
2023/02/09 11:01:23;;;;;;;28.03;17.97;;;5.80;40.90;;;;;;5049669;28;20575;-74
2023/02/09 11:04:20;;;;;;;34.90;20.43;;;6.20;42.10;;;;;;5045078;28;20429;-74
2023/02/09 11:07:10;;;;;;;34.53;19.20;;;6.10;39.60;;;;;;5041977;28;20451;-74
2023/02/09 11:09:59;;;;;;;36.00;21.55;;;5.90;39.70;;;;;;5044186;28;20570;-74
2023/02/09 11:12:46;;;;;;;34.00;21.10;;;6.30;38.30;;;;;;5045909;28;20328;-74
2023/02/09 11:15:42;;;;;;;31.75;19.85;;;6.40;38.20;;;;;;5039842;28;21001;-74
2023/02/09 11:18:33;;;;;;;32.33;21.83;;;6.60;37.90;;;;;;5040653;28;20297;-74
2023/02/09 11:21:28;;;;;;;30.67;20.77;;;6.80;35.80;;;;;;5049883;28;20431;-74
2023/02/09 11:24:22;;;;;;;37.37;24.07;;;7.10;35.90;;;;;;5051119;28;20200;-74
2023/02/09 11:27:27;;;;;;;35.07;21.93;;;6.70;34.30;;;;;;5046742;28;20548;-74
2023/02/09 11:30:26;;;;;;;38.70;24.27;;;6.50;34.70;;;;;;5039060;28;20573;-74
2023/02/09 11:33:21;;;;;;;39.10;24.20;;;6.30;36.10;;;;;;5042381;28;20472;-74
2023/02/09 11:36:19;;;;;;;37.58;23.38;;;6.30;35.80;;;;;;5043324;28;20472;-74
2023/02/09 11:39:10;;;;;;;32.83;23.20;;;5.90;36.00;;;;;;5048579;28;20236;-73
2023/02/09 11:45:06;;;;;;;39.38;24.08;;;5.80;37.50;;;;;;5044964;28;20197;-73
2023/02/09 11:48:05;;;;;;;38.88;25.40;;;5.70;38.40;;;;;;5043180;28;20219;-74
2023/02/09 11:51:03;;;;;;;38.47;24.00;;;5.50;38.30;;;;;;5050919;28;20556;-73
2023/02/09 11:53:53;;;;;;;37.00;24.55;;;5.50;40.40;;;;;;5050980;28;20208;-73
2023/02/09 11:56:42;;;;;;;41.92;25.10;;;5.40;39.20;;;;;;5045775;28;20605;-73
2023/02/09 11:59:33;;;;;;;37.13;24.08;;;5.20;39.00;;;;;;5042136;28;20906;-73
2023/02/09 12:02:37;;;;;;;42.55;26.00;;;5.30;42.00;;;;;;5038542;28;20208;-73
2023/02/09 12:05:25;;;;;;;43.60;23.92;;;5.40;41.20;;;;;;5043267;28;20196;-72
2023/02/09 12:08:29;;;;;;;37.72;23.85;;;5.30;39.90;;;;;;5043081;28;20335;-72
2023/02/09 12:11:28;;;;;;;35.22;24.02;;;5.40;41.90;;;;;;5050339;28;20208;-73
2023/02/09 12:14:30;;;;;;;37.20;23.52;;;5.30;41.70;;;;;;5040798;28;20204;-73
2023/02/09 12:17:20;;;;;;;38.97;24.23;;;5.30;42.10;;;;;;5039051;28;20209;-73
2023/02/09 12:20:20;;;;;;;35.70;24.08;;;5.30;42.60;;;;;;5042113;28;20710;-73
2023/02/09 12:23:18;;;;;;;40.55;25.45;;;5.30;43.30;;;;;;5039777;28;20279;-73
2023/02/09 12:26:34;;;;;;;36.22;23.23;;;5.50;42.00;;;;;;5044036;28;20240;-73
2023/02/09 12:29:33;;;;;;;35.55;22.50;;;5.50;41.80;;;;;;5045650;28;20232;-73
2023/02/09 12:32:41;;;;;;;40.70;24.55;;;5.40;42.30;;;;;;5045257;28;20676;-73
2023/02/09 12:35:37;;;;;;;38.47;23.38;;;5.50;41.30;;;;;;5041408;28;20217;-73
2023/02/09 12:38:24;;;;;;;40.47;23.75;;;5.70;41.60;;;;;;5044627;28;20721;-73
2023/02/09 12:41:11;;;;;;;44.42;24.48;;;5.80;42.20;;;;;;5046561;28;20197;-73
2023/02/09 12:44:36;;;;;;;49.00;24.58;;;6.00;41.00;;;;;;5040275;28;20300;-73
2023/02/09 12:47:56;;;;;;;36.20;22.83;;;6.20;40.00;;;;;;5040923;28;20205;-71
2023/02/09 12:50:51;;;;;;;40.97;24.40;;;6.40;38.10;;;;;;5047625;28;20574;-71
2023/02/09 12:53:56;;;;;;;38.40;23.63;;;6.10;36.10;;;;;;5041825;28;20479;-71
2023/02/09 12:56:42;;;;;;;38.10;22.35;;;6.30;39.40;;;;;;5042512;28;20240;-71
2023/02/09 12:59:28;;;;;;;35.38;23.13;;;6.60;37.10;;;;;;5043831;28;20224;-71
2023/02/09 13:02:16;;;;;;;41.27;22.77;;;6.70;36.00;;;;;;5044706;28;20212;-71
2023/02/09 13:05:07;;;;;;;36.10;23.40;;;6.90;36.50;;;;;;5042808;28;20448;-71
2023/02/09 13:07:59;;;;;;;38.93;23.90;;;6.90;35.30;;;;;;5039589;28;20830;-71
2023/02/09 13:10:53;;;;;;;37.80;23.70;;;7.10;35.20;;;;;;5043292;28;20444;-71
2023/02/09 13:13:47;;;;;;;37.00;23.93;;;7.30;34.30;;;;;;5035653;28;20440;-71
2023/02/09 13:17:00;;;;;;;38.13;24.30;;;7.10;33.40;;;;;;5042909;28;20467;-72
2023/02/09 13:20:12;;;;;;;39.00;23.87;;;7.40;33.10;;;;;;5046374;28;20862;-71
2023/02/09 13:23:13;;;;;;;34.63;22.47;;;7.70;31.40;;;;;;5041308;28;20434;-72
2023/02/09 13:26:02;;;;;;;36.97;23.73;;;8.20;30.80;;;;;;5043553;28;20801;-72
2023/02/09 13:28:47;;;;;;;43.20;25.10;;;8.40;30.00;;;;;;5043731;28;20467;-72
2023/02/09 13:31:38;;;;;;;36.00;23.10;;;8.60;29.00;;;;;;5044392;28;20422;-72
2023/02/09 13:34:31;;;;;;;32.87;21.73;;;8.80;28.50;;;;;;5039422;28;20474;-72
2023/02/09 13:37:26;;;;;;;38.73;22.50;;;8.60;27.40;;;;;;5046558;28;20554;-73
2023/02/09 13:40:18;;;;;;;35.10;23.20;;;8.80;27.40;;;;;;5035471;28;20429;-72
2023/02/09 13:43:16;;;;;;;43.57;21.60;;;8.60;27.10;;;;;;5039854;28;20466;-73
2023/02/09 13:46:02;;;;;;;37.93;23.70;;;8.90;28.20;;;;;;5037441;28;20467;-73
2023/02/09 13:48:48;;;;;;;36.73;24.27;;;8.60;27.20;;;;;;5046777;28;20451;-73
2023/02/09 13:51:33;;;;;;;34.00;22.77;;;8.80;26.80;;;;;;5037813;28;20425;-74
2023/02/09 13:54:20;;;;;;;34.10;22.93;;;8.90;26.00;;;;;;5041771;28;20451;-73
2023/02/09 13:57:10;;;;;;;35.33;22.23;;;9.10;25.40;;;;;;5037742;28;20554;-73
2023/02/09 14:00:02;;;;;;;36.07;22.00;;;8.80;25.80;;;;;;5037623;28;20527;-73
2023/02/09 14:02:51;;;;;;;74.97;36.00;;;8.90;25.30;;;;;;5037737;28;20822;-73
2023/02/09 14:05:41;;;;;;;63.87;31.20;;;8.40;25.40;;;;;;5037350;28;20539;-73
2023/02/09 14:08:28;;;;;;;71.90;34.30;;;8.30;26.90;;;;;;5044965;28;20997;-73
2023/02/09 14:11:29;;;;;;;57.57;33.43;;;8.50;27.00;;;;;;5044045;28;20444;-73
2023/02/09 14:14:21;;;;;;;76.07;37.37;;;8.70;25.70;;;;;;5041685;28;20451;-71
2023/02/09 14:17:12;;;;;;;40.60;24.00;;;9.00;25.20;;;;;;5051323;28;20992;-71
2023/02/09 14:19:59;;;;;;;54.83;30.67;;;9.10;25.00;;;;;;5048216;28;20467;-73
2023/02/09 14:22:45;;;;;;;49.30;29.70;;;8.80;25.60;;;;;;5042907;28;20633;-73
2023/02/09 14:25:31;;;;;;;36.00;21.80;;;8.50;26.10;;;;;;5043093;28;20541;-73
2023/02/09 14:28:17;;;;;;;32.37;21.83;;;7.90;26.00;;;;;;5048903;28;20459;-73
2023/02/09 14:31:03;;;;;;;34.50;22.73;;;7.40;27.40;;;;;;5044939;28;20454;-73
2023/02/09 14:33:52;;;;;;;38.47;24.03;;;6.90;28.10;;;;;;5042502;28;20455;-73